Time;durP1;ratioP1;P1;durP2;ratioP2;P2;SDS_P1;SDS_P2;PMS_P1;PMS_P2;Temp;Humidity;BMP_temperature;BMP_pressure;BME280_temperature;BME280_humidity;BME280_pressure;Samples;Min_cycle;Max_cycle;Signal;HPM_P1;HPM_P2
2022/04/12 00:00:00;;;;;;;9.00;3.40;;;14.10;99.90;;;;;;5081965;28;20619;-86
2022/04/12 00:02:29;;;;;;;4.37;2.53;;;14.20;99.90;;;;;;5076149;28;20170;-86
2022/04/12 00:04:54;;;;;;;5.37;2.83;;;14.20;99.90;;;;;;5078490;28;20171;-86
2022/04/12 00:07:20;;;;;;;6.20;2.70;;;14.10;99.90;;;;;;5081783;28;20220;-84
2022/04/12 00:09:46;;;;;;;5.13;2.93;;;14.20;99.90;;;;;;5075970;28;20641;-87
2022/04/12 00:12:15;;;;;;;6.20;3.00;;;14.20;99.90;;;;;;5076281;28;20188;-86
2022/04/12 00:14:40;;;;;;;5.27;3.17;;;14.10;99.90;;;;;;5092196;28;20154;-84
2022/04/12 00:19:56;;;;;;;4.60;2.70;;;14.10;99.90;;;;;;5079299;28;20641;-86
2022/04/12 00:22:25;;;;;;;4.10;2.83;;;14.00;99.90;;;;;;5075477;28;20522;-86
2022/04/12 00:24:51;;;;;;;3.50;2.27;;;13.80;99.90;;;;;;5074878;28;20633;-86
2022/04/12 00:27:16;;;;;;;4.87;2.47;;;13.70;99.90;;;;;;5075210;28;20207;-83
2022/04/12 00:29:42;;;;;;;4.13;2.37;;;13.60;99.90;;;;;;5088361;28;20215;-86
2022/04/12 00:32:08;;;;;;;5.03;2.30;;;13.60;99.90;;;;;;5098488;28;20169;-86
2022/04/12 00:34:34;;;;;;;5.10;2.50;;;13.60;1.00;;;;;;5083503;28;20262;-87
2022/04/12 00:37:27;;;;;;;4.27;2.30;;;13.80;99.90;;;;;;5078641;28;20580;-85
2022/04/12 00:39:53;;;;;;;4.60;2.73;;;13.80;99.90;;;;;;5079313;28;20170;-85
2022/04/12 00:42:19;;;;;;;3.87;2.40;;;13.70;99.90;;;;;;5077858;28;20624;-85
2022/04/12 00:44:45;;;;;;;5.67;2.80;;;13.70;99.90;;;;;;5077423;28;20240;-86
2022/04/12 00:47:11;;;;;;;4.83;3.00;;;13.80;99.90;;;;;;5077279;28;20261;-86
2022/04/12 00:49:36;;;;;;;4.33;2.70;;;13.80;99.90;;;;;;5077420;28;20213;-85
2022/04/12 00:52:04;;;;;;;5.97;2.40;;;13.80;1.00;;;;;;5077722;28;20173;-85
2022/04/12 00:54:31;;;;;;;4.63;2.90;;;13.60;1.00;;;;;;5078674;28;20165;-85
2022/04/12 00:56:57;;;;;;;6.37;2.87;;;13.70;1.00;;;;;;5078075;28;20174;-85
2022/04/12 00:59:23;;;;;;;6.17;3.03;;;13.90;1.00;;;;;;5079134;28;20173;-82
2022/04/12 01:01:49;;;;;;;4.97;2.60;;;13.90;1.00;;;;;;5080290;28;20176;-85
2022/04/12 01:04:15;;;;;;;3.87;2.70;;;13.70;1.00;;;;;;5079586;28;20174;-86
2022/04/12 01:06:41;;;;;;;4.63;2.47;;;13.70;1.00;;;;;;5079317;28;20191;-87
2022/04/12 01:09:09;;;;;;;7.10;3.50;;;13.70;1.00;;;;;;5078151;28;20230;-86
2022/04/12 01:11:36;;;;;;;6.70;2.97;;;13.60;1.00;;;;;;5078990;28;20183;-83
2022/04/12 01:14:03;;;;;;;6.53;3.00;;;13.70;1.00;;;;;;5078216;28;20610;-86
2022/04/12 01:16:28;;;;;;;5.37;2.50;;;13.70;1.00;;;;;;5078046;28;20174;-86
2022/04/12 01:18:55;;;;;;;9.30;3.13;;;13.70;1.00;;;;;;5087556;28;20151;-79
2022/04/12 01:21:21;;;;;;;4.70;2.70;;;13.70;1.00;;;;;;5096516;28;20543;-81
2022/04/12 01:24:03;;;;;;;5.40;2.90;;;13.90;1.00;;;;;;5100212;28;20169;-79
2022/04/12 01:26:32;;;;;;;5.57;2.90;;;13.60;1.00;;;;;;5092341;28;20193;-83
2022/04/12 01:28:58;;;;;;;5.57;2.77;;;13.60;1.00;;;;;;5082223;28;20176;-86
2022/04/12 01:31:26;;;;;;;4.70;2.33;;;13.60;1.00;;;;;;5083368;28;20176;-86
2022/04/12 01:33:52;;;;;;;4.63;3.00;;;13.50;1.00;;;;;;5082105;28;20170;-87
2022/04/12 01:36:18;;;;;;;6.03;2.30;;;13.50;1.00;;;;;;5079283;28;20172;-86
2022/04/12 01:38:50;;;;;;;6.17;2.50;;;13.30;1.00;;;;;;5080599;28;20166;-86
2022/04/12 01:41:18;;;;;;;3.63;2.30;;;13.20;1.00;;;;;;5083996;28;20169;-82
2022/04/12 01:43:44;;;;;;;5.13;2.40;;;13.20;1.00;;;;;;5085042;28;20214;-86
2022/04/12 01:46:09;;;;;;;3.37;2.20;;;13.20;1.00;;;;;;5091764;28;20217;-87
2022/04/12 01:48:35;;;;;;;4.97;2.13;;;13.20;1.00;;;;;;5092261;28;20683;-86
2022/04/12 01:51:01;;;;;;;4.20;2.40;;;13.20;1.00;;;;;;5091940;28;20169;-84
2022/04/12 01:53:32;;;;;;;5.20;2.43;;;13.10;1.00;;;;;;5083062;28;20507;-81
2022/04/12 01:56:08;;;;;;;4.10;2.50;;;13.00;1.00;;;;;;5079914;28;20161;-79
2022/04/12 01:58:46;;;;;;;4.43;2.40;;;13.10;1.00;;;;;;5076940;28;20164;-83
2022/04/12 02:01:11;;;;;;;5.23;2.33;;;13.20;1.00;;;;;;5077509;28;20635;-86
2022/04/12 02:03:37;;;;;;;5.63;2.40;;;13.30;1.00;;;;;;5077359;28;20213;-86
2022/04/12 02:06:03;;;;;;;4.50;2.17;;;13.30;1.00;;;;;;5083244;28;20559;-85
2022/04/12 02:08:29;;;;;;;4.30;2.77;;;13.30;1.00;;;;;;5094778;28;20179;-84
2022/04/12 02:10:54;;;;;;;4.60;2.00;;;13.20;1.00;;;;;;5094281;28;20161;-76
2022/04/12 02:13:20;;;;;;;5.50;2.40;;;13.20;1.00;;;;;;5094527;28;20173;-86
2022/04/12 02:15:47;;;;;;;4.07;2.70;;;13.10;1.00;;;;;;5091840;28;20177;-83
2022/04/12 02:18:12;;;;;;;4.07;2.20;;;13.00;1.00;;;;;;5083576;28;20169;-85
2022/04/12 02:20:38;;;;;;;3.13;2.30;;;13.00;1.00;;;;;;5079786;28;20165;-79
2022/04/12 02:23:06;;;;;;;6.13;2.50;;;13.10;1.00;;;;;;5076369;28;20162;-87
2022/04/12 02:25:31;;;;;;;4.40;2.40;;;13.10;1.00;;;;;;5080159;28;20665;-84
2022/04/12 02:27:57;;;;;;;3.80;2.33;;;13.10;1.00;;;;;;5080426;28;20200;-80
2022/04/12 02:30:23;;;;;;;3.20;2.43;;;13.10;1.00;;;;;;5097024;28;20171;-80
2022/04/12 02:32:48;;;;;;;3.83;2.30;;;13.30;1.00;;;;;;5080253;28;20180;-83
2022/04/12 02:35:20;;;;;;;4.20;2.83;;;13.10;1.00;;;;;;5076682;28;20618;-85
2022/04/12 02:37:45;;;;;;;4.90;2.70;;;12.90;1.00;;;;;;5075992;28;20195;-83
2022/04/12 02:40:11;;;;;;;4.57;2.30;;;12.90;1.00;;;;;;5081909;28;20165;-84
2022/04/12 02:42:37;;;;;;;5.40;2.40;;;12.70;1.00;;;;;;5081343;28;20198;-86
2022/04/12 02:45:03;;;;;;;3.90;2.57;;;12.80;1.00;;;;;;5092930;28;20163;-79
2022/04/12 02:47:28;;;;;;;3.57;2.30;;;12.80;1.00;;;;;;5090322;28;20616;-85
2022/04/12 02:49:57;;;;;;;3.50;2.20;;;12.80;1.00;;;;;;5076920;28;20192;-86
2022/04/12 02:52:34;;;;;;;4.27;2.57;;;12.80;1.00;;;;;;5097476;28;20175;-79
2022/04/12 02:58:21;;;;;;;5.33;2.77;;;13.00;1.00;;;;;;5076573;28;20233;-85
2022/04/12 03:00:47;;;;;;;5.40;2.70;;;13.00;1.00;;;;;;5076668;28;20176;-84
2022/04/12 03:03:13;;;;;;;3.80;2.37;;;12.90;1.00;;;;;;5075756;28;20536;-85
2022/04/12 03:05:38;;;;;;;3.87;2.40;;;13.00;1.00;;;;;;5078626;28;20192;-83
2022/04/12 03:08:05;;;;;;;4.67;2.23;;;13.20;1.00;;;;;;5085585;28;20202;-81
2022/04/12 03:10:30;;;;;;;3.67;2.33;;;13.30;1.00;;;;;;5079729;28;20164;-86
2022/04/12 03:12:59;;;;;;;4.03;2.43;;;13.30;1.00;;;;;;5075937;28;20215;-86
2022/04/12 03:15:31;;;;;;;5.53;2.97;;;13.30;1.00;;;;;;5079891;28;20160;-88
2022/04/12 03:17:57;;;;;;;9.23;3.67;;;13.20;1.00;;;;;;5084195;28;20172;-80
2022/04/12 03:20:23;;;;;;;3.87;2.57;;;13.20;1.00;;;;;;5085494;28;20174;-85
2022/04/12 03:22:49;;;;;;;6.17;2.40;;;13.30;1.00;;;;;;5077606;28;20168;-81
2022/04/12 03:25:15;;;;;;;4.17;2.53;;;13.30;1.00;;;;;;5076450;28;20161;-86
2022/04/12 03:27:40;;;;;;;4.17;2.83;;;13.60;1.00;;;;;;5076711;28;20259;-85
2022/04/12 03:30:06;;;;;;;5.20;2.97;;;13.40;1.00;;;;;;5077267;28;20243;-87
2022/04/12 03:32:32;;;;;;;6.07;2.83;;;13.50;1.00;;;;;;5075554;28;20259;-87
2022/04/12 03:34:58;;;;;;;6.67;2.77;;;13.50;1.00;;;;;;5075295;28;20219;-86
2022/04/12 03:37:24;;;;;;;7.47;3.07;;;13.50;1.00;;;;;;5074680;28;20171;-86
2022/04/12 03:39:51;;;;;;;5.13;2.67;;;13.50;1.00;;;;;;5076462;28;20253;-86
2022/04/12 03:42:18;;;;;;;5.47;2.63;;;13.70;1.00;;;;;;5076381;28;20648;-86
2022/04/12 03:44:45;;;;;;;4.37;2.70;;;13.60;1.00;;;;;;5076672;28;20157;-85
2022/04/12 03:47:11;;;;;;;4.93;2.80;;;13.60;1.00;;;;;;5076302;28;20208;-85
2022/04/12 03:49:36;;;;;;;6.37;3.20;;;13.50;1.00;;;;;;5086623;28;20183;-78
2022/04/12 03:52:02;;;;;;;8.83;2.97;;;13.20;1.00;;;;;;5095463;28;20200;-80
2022/04/12 03:54:31;;;;;;;6.73;3.00;;;13.10;1.00;;;;;;5090435;28;20155;-86
2022/04/12 03:57:17;;;;;;;5.70;2.60;;;13.30;1.00;;;;;;5076924;28;20180;-86
2022/04/12 03:59:43;;;;;;;6.50;2.80;;;13.20;1.00;;;;;;5076191;28;20322;-86
2022/04/12 04:02:08;;;;;;;6.77;2.50;;;13.30;1.00;;;;;;5076578;28;20640;-85
2022/04/12 04:04:34;;;;;;;5.63;2.57;;;13.20;1.00;;;;;;5080669;28;20187;-85
2022/04/12 04:07:00;;;;;;;5.40;2.67;;;13.10;1.00;;;;;;5079840;28;20219;-86
2022/04/12 04:09:25;;;;;;;8.07;2.90;;;12.90;1.00;;;;;;5080142;28;20176;-84
2022/04/12 04:11:51;;;;;;;4.57;2.43;;;12.80;1.00;;;;;;5081361;28;20667;-87
2022/04/12 04:14:17;;;;;;;4.97;2.30;;;12.70;1.00;;;;;;5083479;28;20612;-82
2022/04/12 04:16:43;;;;;;;3.93;2.20;;;12.60;1.00;;;;;;5090265;28;20182;-88
2022/04/12 04:19:09;;;;;;;6.67;2.90;;;12.60;1.00;;;;;;5099169;28;20184;-79
2022/04/12 04:21:40;;;;;;;6.00;2.63;;;12.60;1.00;;;;;;5101182;28;20169;-84
2022/04/12 04:24:06;;;;;;;4.17;2.53;;;12.70;1.00;;;;;;5098845;28;20164;-77
2022/04/12 04:26:32;;;;;;;7.03;2.50;;;12.80;1.00;;;;;;5099068;28;20233;-82
2022/04/12 04:28:58;;;;;;;5.07;2.60;;;12.90;1.00;;;;;;5092542;28;20179;-83
2022/04/12 04:31:27;;;;;;;6.60;2.97;;;12.70;1.00;;;;;;5088775;28;20640;-86
2022/04/12 04:33:53;;;;;;;9.27;3.37;;;12.60;1.00;;;;;;5082551;28;20298;-84
2022/04/12 04:36:20;;;;;;;5.63;2.60;;;12.50;1.00;;;;;;5084951;28;20180;-87
2022/04/12 04:38:45;;;;;;;6.60;2.50;;;12.40;1.00;;;;;;5081253;28;20195;-86
2022/04/12 04:41:11;;;;;;;3.97;2.60;;;12.50;1.00;;;;;;5091031;28;20176;-85
2022/04/12 04:43:39;;;;;;;6.03;2.67;;;12.60;1.00;;;;;;5097357;28;20208;-85
2022/04/12 04:46:28;;;;;;;7.33;2.93;;;12.50;1.00;;;;;;5083190;28;20193;-87
2022/04/12 04:48:53;;;;;;;6.03;2.93;;;12.60;1.00;;;;;;5078295;28;20185;-85
2022/04/12 04:51:20;;;;;;;7.60;3.10;;;12.70;1.00;;;;;;5078839;28;20304;-86
2022/04/12 04:53:55;;;;;;;7.40;2.97;;;12.80;1.00;;;;;;5079805;28;20168;-86
2022/04/12 04:56:21;;;;;;;9.17;3.23;;;12.70;1.00;;;;;;5093162;28;20157;-83
2022/04/12 04:58:47;;;;;;;8.30;2.90;;;12.60;1.00;;;;;;5090929;28;20172;-87
2022/04/12 05:01:15;;;;;;;12.03;4.27;;;12.50;1.00;;;;;;5086756;28;20153;-84
2022/04/12 05:03:41;;;;;;;13.33;3.50;;;12.50;1.00;;;;;;5097839;28;20148;-84
2022/04/12 05:06:07;;;;;;;10.93;3.00;;;12.50;1.00;;;;;;5098651;28;20195;-86
2022/04/12 05:08:32;;;;;;;5.63;2.93;;;12.50;1.00;;;;;;5099601;28;20168;-82
2022/04/12 05:11:01;;;;;;;4.70;2.67;;;12.50;1.00;;;;;;5094240;28;20183;-86
2022/04/12 05:13:28;;;;;;;5.60;2.70;;;12.60;1.00;;;;;;5091164;28;20200;-78
2022/04/12 05:15:56;;;;;;;7.43;2.80;;;12.70;1.00;;;;;;5089759;28;20160;-86
2022/04/12 05:18:23;;;;;;;6.60;2.60;;;12.60;1.00;;;;;;5083122;28;20160;-86
2022/04/12 05:20:49;;;;;;;5.90;3.20;;;12.50;1.00;;;;;;5084318;28;20233;-84
2022/04/12 05:23:16;;;;;;;6.27;3.07;;;12.40;1.00;;;;;;5087455;28;20164;-78
2022/04/12 05:25:42;;;;;;;4.80;2.40;;;12.40;1.00;;;;;;5093013;28;20196;-78
2022/04/12 05:28:10;;;;;;;6.00;2.70;;;12.40;1.00;;;;;;5090201;28;20176;-86
2022/04/12 05:30:35;;;;;;;10.70;2.77;;;12.40;1.00;;;;;;5086493;28;20173;-86
2022/04/12 05:33:01;;;;;;;10.53;2.87;;;12.50;1.00;;;;;;5083308;28;20183;-79
2022/04/12 05:35:33;;;;;;;7.53;2.47;;;12.60;1.00;;;;;;5077586;28;20192;-86
2022/04/12 05:37:59;;;;;;;6.83;3.00;;;12.70;1.00;;;;;;5077884;28;20165;-83
2022/04/12 05:40:25;;;;;;;8.00;2.53;;;12.80;1.00;;;;;;5077973;28;20172;-86
2022/04/12 05:42:54;;;;;;;4.60;2.70;;;12.90;1.00;;;;;;5077466;28;20169;-84
2022/04/12 05:45:19;;;;;;;6.53;3.43;;;13.00;1.00;;;;;;5091841;28;20163;-77
2022/04/12 05:47:54;;;;;;;5.30;2.93;;;13.10;1.00;;;;;;5096100;28;20164;-83
2022/04/12 05:50:22;;;;;;;4.43;2.60;;;13.20;1.00;;;;;;5082456;28;20184;-86
2022/04/12 05:52:48;;;;;;;7.30;2.87;;;13.30;1.00;;;;;;5092735;28;20165;-78
2022/04/12 05:55:16;;;;;;;5.60;3.17;;;13.50;1.00;;;;;;5093517;28;20555;-82
2022/04/12 05:57:56;;;;;;;6.30;3.07;;;13.60;1.00;;;;;;5089681;28;20171;-86
2022/04/12 06:00:30;;;;;;;4.90;2.63;;;13.80;1.00;;;;;;5079979;28;20208;-84
2022/04/12 06:02:57;;;;;;;6.60;3.10;;;13.90;1.00;;;;;;5077227;28;20226;-85
2022/04/12 06:05:24;;;;;;;12.57;3.30;;;14.00;1.00;;;;;;5076124;28;20176;-86
2022/04/12 06:07:51;;;;;;;8.00;3.00;;;14.10;1.00;;;;;;5075388;28;20173;-85
2022/04/12 06:10:19;;;;;;;7.20;2.57;;;14.40;1.00;;;;;;5076508;28;20166;-84
2022/04/12 06:12:45;;;;;;;4.13;2.57;;;14.50;1.00;;;;;;5077287;28;20184;-85
2022/04/12 06:15:11;;;;;;;8.83;2.77;;;14.60;1.00;;;;;;5078657;28;20175;-86
2022/04/12 06:17:38;;;;;;;9.77;2.87;;;14.70;1.00;;;;;;5094853;28;20182;-78
2022/04/12 06:20:06;;;;;;;5.77;2.83;;;14.90;1.00;;;;;;5098001;28;20182;-79
2022/04/12 06:22:32;;;;;;;8.33;2.53;;;14.90;1.00;;;;;;5085893;28;20175;-86
2022/04/12 06:24:58;;;;;;;10.87;4.17;;;15.10;1.00;;;;;;5079916;28;20168;-86
2022/04/12 06:27:30;;;;;;;12.53;4.40;;;15.10;1.00;;;;;;5089882;28;20231;-84
2022/04/12 06:29:57;;;;;;;6.13;2.63;;;15.20;1.00;;;;;;5083382;28;20639;-86
2022/04/12 06:32:29;;;;;;;8.00;2.50;;;15.10;1.00;;;;;;5078205;28;20171;-87
2022/04/12 06:34:57;;;;;;;5.60;2.43;;;15.00;1.00;;;;;;5076681;28;20538;-85
2022/04/12 06:37:27;;;;;;;11.87;2.70;;;14.80;1.00;;;;;;5080157;28;20176;-80
2022/04/12 06:39:59;;;;;;;8.20;3.60;;;14.90;1.00;;;;;;5084988;28;20206;-86
2022/04/12 06:42:25;;;;;;;6.80;3.23;;;14.70;1.00;;;;;;5081326;28;20164;-77
2022/04/12 06:44:51;;;;;;;5.93;2.00;;;14.80;1.00;;;;;;5079282;28;20220;-87
2022/04/12 06:47:20;;;;;;;6.30;2.40;;;14.80;1.00;;;;;;5077006;28;20196;-83
2022/04/12 06:49:47;;;;;;;3.20;1.87;;;14.80;1.00;;;;;;5084498;28;20176;-78
2022/04/12 06:52:14;;;;;;;5.20;1.80;;;14.70;1.00;;;;;;5097424;28;20171;-84
2022/04/12 06:54:40;;;;;;;7.67;2.70;;;14.70;1.00;;;;;;5086659;28;20171;-84
2022/04/12 06:57:12;;;;;;;6.53;2.27;;;14.90;1.00;;;;;;5079115;28;20157;-87
2022/04/12 06:59:38;;;;;;;5.27;2.00;;;14.90;1.00;;;;;;5078646;28;20217;-88
2022/04/12 07:02:04;;;;;;;10.20;2.87;;;14.90;1.00;;;;;;5078876;28;20160;-87
2022/04/12 07:04:30;;;;;;;8.40;2.63;;;14.90;1.00;;;;;;5086245;28;20495;-80
2022/04/12 07:06:58;;;;;;;10.03;2.93;;;14.90;1.00;;;;;;5094734;28;20222;-86
2022/04/12 07:09:28;;;;;;;6.33;3.00;;;15.00;1.00;;;;;;5090817;28;20171;-84
2022/04/12 07:11:59;;;;;;;5.13;2.17;;;15.10;1.00;;;;;;5081286;28;20180;-81
2022/04/12 07:14:26;;;;;;;6.93;2.50;;;15.20;1.00;;;;;;5082926;28;20169;-88
2022/04/12 07:16:52;;;;;;;6.93;2.70;;;15.30;1.00;;;;;;5080178;28;20180;-87
2022/04/12 07:19:18;;;;;;;5.47;2.20;;;15.40;1.00;;;;;;5080231;28;20171;-87
2022/04/12 07:21:44;;;;;;;5.93;1.97;;;15.70;1.00;;;;;;5085715;28;20202;-87
2022/04/12 07:24:10;;;;;;;6.70;2.33;;;15.80;99.90;;;;;;5081942;28;20513;-82
2022/04/12 07:26:37;;;;;;;5.07;2.30;;;15.90;99.90;;;;;;5081750;28;20203;-82
2022/04/12 07:29:03;;;;;;;4.77;1.90;;;16.00;99.90;;;;;;5081377;28;20173;-88
2022/04/12 07:31:30;;;;;;;3.70;2.20;;;16.20;99.90;;;;;;5074957;28;20192;-87
2022/04/12 07:33:56;;;;;;;5.70;2.00;;;16.40;99.90;;;;;;5087638;28;20289;-87
2022/04/12 07:36:53;;;;;;;8.37;3.10;;;16.20;99.90;;;;;;5084165;28;20161;-87
2022/04/12 07:39:20;;;;;;;6.43;2.50;;;16.20;99.90;;;;;;5084833;28;20588;-85
2022/04/12 07:42:01;;;;;;;5.33;1.70;;;16.30;99.90;;;;;;5088608;28;20168;-85
2022/04/12 07:44:26;;;;;;;4.97;1.90;;;16.30;99.90;;;;;;5088430;28;20172;-86
2022/04/12 07:46:52;;;;;;;6.70;2.20;;;16.30;99.90;;;;;;5084255;28;20192;-87
2022/04/12 07:49:19;;;;;;;6.07;1.93;;;16.30;99.90;;;;;;5083182;28;20207;-86
2022/04/12 07:51:46;;;;;;;3.50;1.70;;;16.30;99.90;;;;;;5082099;28;20172;-83
2022/04/12 07:54:12;;;;;;;6.00;2.30;;;16.30;99.90;;;;;;5088196;28;20263;-85
2022/04/12 07:56:39;;;;;;;4.97;2.20;;;16.30;99.90;;;;;;5091898;28;20202;-84
2022/04/12 07:59:10;;;;;;;3.63;1.97;;;16.50;99.90;;;;;;5089878;28;20184;-85
2022/04/12 08:01:36;;;;;;;7.97;2.53;;;16.60;99.90;;;;;;5091458;28;20199;-89
2022/04/12 08:04:02;;;;;;;6.80;2.20;;;16.70;99.90;;;;;;5090876;28;20198;-87
2022/04/12 08:06:28;;;;;;;6.07;1.93;;;16.80;99.90;;;;;;5091870;28;20286;-87
2022/04/12 08:08:55;;;;;;;4.73;2.20;;;16.90;91.90;;;;;;5091804;28;20164;-79
2022/04/12 08:11:21;;;;;;;5.47;2.20;;;17.20;99.90;;;;;;5088515;28;20181;-80
2022/04/12 08:13:46;;;;;;;5.03;2.00;;;17.30;1.00;;;;;;5089874;28;20239;-86
2022/04/12 08:16:15;;;;;;;4.67;2.03;;;17.50;99.90;;;;;;5088538;28;20174;-86
2022/04/12 08:18:43;;;;;;;8.00;2.30;;;17.60;1.00;;;;;;5088204;28;20222;-86
2022/04/12 08:21:08;;;;;;;4.73;2.10;;;17.90;99.90;;;;;;5094744;28;20176;-84
2022/04/12 08:23:34;;;;;;;5.10;2.07;;;17.90;99.90;;;;;;5093801;28;20188;-80
2022/04/12 08:26:00;;;;;;;5.23;2.30;;;18.00;99.90;;;;;;5077049;28;20214;-81
2022/04/12 08:28:25;;;;;;;5.13;2.03;;;18.10;99.90;;;;;;5096724;28;20179;-84
2022/04/12 08:30:51;;;;;;;4.53;2.23;;;18.20;1.00;;;;;;5097193;28;20171;-83
2022/04/12 08:33:18;;;;;;;7.07;2.10;;;18.30;99.90;;;;;;5095014;28;20180;-85
2022/04/12 08:35:49;;;;;;;6.47;2.07;;;18.50;1.00;;;;;;5092142;28;20153;-88
2022/04/12 08:38:18;;;;;;;7.10;1.63;;;18.60;1.00;;;;;;5089891;28;20187;-86
2022/04/12 08:40:44;;;;;;;2.77;1.57;;;18.60;1.00;;;;;;5093092;28;20165;-87
2022/04/12 08:43:14;;;;;;;4.10;1.87;;;18.60;1.00;;;;;;5091338;28;20195;-86
2022/04/12 08:45:45;;;;;;;7.40;2.23;;;18.70;99.90;;;;;;5091306;28;20199;-85
2022/04/12 08:48:12;;;;;;;5.23;2.33;;;18.80;92.00;;;;;;5072462;28;20181;-85
2022/04/12 08:50:39;;;;;;;4.97;2.00;;;18.90;3.20;;;;;;5096636;28;20197;-84
2022/04/12 08:53:06;;;;;;;7.20;2.10;;;19.10;99.90;;;;;;5093714;28;20236;-79
2022/04/12 08:55:33;;;;;;;6.17;2.10;;;19.40;1.00;;;;;;5087390;28;20212;-86
2022/04/12 08:58:01;;;;;;;6.17;2.10;;;19.50;99.90;;;;;;5095977;28;20240;-84
2022/04/12 09:00:27;;;;;;;6.17;1.93;;;19.60;17.10;;;;;;5096410;28;20186;-86
2022/04/12 09:02:57;;;;;;;5.93;2.50;;;19.60;1.00;;;;;;5097652;28;20177;-87
2022/04/12 09:05:33;;;;;;;6.73;1.80;;;19.70;99.90;;;;;;5099139;28;20231;-88
2022/04/12 09:08:00;;;;;;;4.63;1.97;;;19.50;99.90;;;;;;5097660;28;20176;-83
2022/04/12 09:10:36;;;;;;;4.93;1.80;;;19.40;1.00;;;;;;5099790;28;20162;-88
2022/04/12 09:13:12;;;;;;;5.90;2.10;;;19.20;1.00;;;;;;5098647;28;20193;-80
2022/04/12 09:15:44;;;;;;;4.97;1.90;;;19.20;99.90;;;;;;5099129;28;20174;-79
2022/04/12 09:18:12;;;;;;;8.70;2.17;;;19.00;1.00;;;;;;5101390;28;20221;-79
2022/04/12 09:20:37;;;;;;;7.27;1.90;;;19.00;1.00;;;;;;5100912;28;20207;-81
2022/04/12 09:23:25;;;;;;;6.40;2.10;;;19.00;1.00;;;;;;5100651;28;20197;-80
2022/04/12 09:25:55;;;;;;;4.40;1.60;;;19.20;1.00;;;;;;5099316;28;20220;-83
2022/04/12 09:28:21;;;;;;;5.03;2.57;;;19.30;1.00;;;;;;5098942;28;20166;-83
2022/04/12 09:30:53;;;;;;;5.27;2.00;;;19.20;1.00;;;;;;5098092;28;20178;-76
2022/04/12 09:33:36;;;;;;;5.77;1.90;;;19.30;1.00;;;;;;5099292;28;20164;-87
2022/04/12 09:36:03;;;;;;;5.10;2.00;;;19.40;1.00;;;;;;5098632;28;20161;-80
2022/04/12 09:38:34;;;;;;;9.17;2.20;;;19.40;99.90;;;;;;5096849;28;20168;-85
2022/04/12 09:41:23;;;;;;;7.03;2.53;;;19.40;99.90;;;;;;5095404;28;20376;-76
2022/04/12 09:44:11;;;;;;;6.33;2.20;;;19.30;1.00;;;;;;5094000;28;20162;-76
2022/04/12 09:46:42;;;;;;;7.97;2.57;;;19.20;74.90;;;;;;5096685;28;20220;-82
2022/04/12 09:49:08;;;;;;;5.23;2.50;;;19.20;99.90;;;;;;5095352;28;20182;-78
2022/04/12 09:51:36;;;;;;;6.37;2.90;;;19.20;1.00;;;;;;5079156;28;20179;-89
2022/04/12 09:54:09;;;;;;;15.57;2.97;;;19.20;98.90;;;;;;5096878;28;20149;-82
2022/04/12 09:56:39;;;;;;;6.80;2.37;;;19.30;99.90;;;;;;5095306;28;20180;-84
2022/04/12 09:59:07;;;;;;;5.17;2.27;;;19.50;1.00;;;;;;5093442;28;20167;-88
2022/04/12 10:01:39;;;;;;;7.40;2.33;;;19.60;1.00;;;;;;5090428;28;20174;-83
2022/04/12 10:04:09;;;;;;;7.53;3.00;;;19.80;99.90;;;;;;5089467;28;20211;-78
2022/04/12 10:06:40;;;;;;;5.53;2.40;;;19.90;99.90;;;;;;5084796;28;20201;-89
2022/04/12 10:09:09;;;;;;;8.33;2.27;;;20.00;1.00;;;;;;5082152;28;20228;-82
2022/04/12 10:11:37;;;;;;;6.23;2.23;;;20.30;99.90;;;;;;5080815;28;20262;-88
2022/04/12 10:14:02;;;;;;;5.17;2.70;;;20.20;99.90;;;;;;5070135;28;20228;-88
2022/04/12 10:16:28;;;;;;;7.50;2.37;;;20.20;1.00;;;;;;5060508;28;20176;-88
2022/04/12 10:18:54;;;;;;;6.27;2.50;;;20.20;99.90;;;;;;5060010;28;20583;-87
2022/04/12 10:21:22;;;;;;;4.27;2.33;;;20.20;1.00;;;;;;5061152;28;20206;-88
2022/04/12 10:23:58;;;;;;;7.23;2.43;;;20.00;99.90;;;;;;5060658;28;20177;-85
2022/04/12 10:26:26;;;;;;;6.83;2.40;;;20.00;99.90;;;;;;5060241;28;20222;-87
2022/04/12 10:28:59;;;;;;;6.77;2.43;;;20.00;93.60;;;;;;5060831;28;20172;-87
2022/04/12 10:31:30;;;;;;;7.13;2.60;;;20.10;99.90;;;;;;5060264;28;20322;-89
2022/04/12 10:34:11;;;;;;;8.23;2.40;;;20.00;99.90;;;;;;5060021;28;20171;-88
2022/04/12 10:36:54;;;;;;;5.10;2.27;;;20.10;1.00;;;;;;5060098;28;20242;-90
2022/04/12 10:39:37;;;;;;;5.37;2.17;;;20.20;99.90;;;;;;5061466;28;20175;-87
2022/04/12 10:42:07;;;;;;;7.00;2.47;;;20.20;99.90;;;;;;5061926;28;20199;-89
2022/04/12 10:44:41;;;;;;;4.57;2.10;;;20.30;1.00;;;;;;5060282;28;20175;-87
2022/04/12 10:47:21;;;;;;;7.73;2.23;;;20.50;99.90;;;;;;5061166;28;20203;-90
2022/04/12 10:49:52;;;;;;;6.00;2.03;;;20.60;1.00;;;;;;5066338;28;20269;-89
2022/04/12 10:52:18;;;;;;;7.17;2.10;;;20.50;1.00;;;;;;5070323;28;20203;-88
2022/04/12 10:54:46;;;;;;;8.30;2.97;;;20.50;1.00;;;;;;5068895;28;20244;-83
2022/04/12 10:57:18;;;;;;;5.07;2.20;;;20.60;1.00;;;;;;5062852;28;20182;-87
2022/04/12 10:59:53;;;;;;;6.63;2.00;;;20.70;1.00;;;;;;5062931;28;20186;-88
2022/04/12 11:02:35;;;;;;;8.93;2.10;;;20.90;99.90;;;;;;5066626;28;20600;-90
2022/04/12 11:05:05;;;;;;;6.17;2.20;;;20.90;99.90;;;;;;5065571;28;20227;-84
2022/04/12 11:07:54;;;;;;;5.23;2.00;;;20.70;99.90;;;;;;5067803;28;20246;-89
2022/04/12 11:10:22;;;;;;;6.03;2.33;;;20.70;99.90;;;;;;5065443;28;20187;-87
2022/04/12 11:12:49;;;;;;;7.30;2.10;;;20.60;99.90;;;;;;5066203;28;20196;-77
2022/04/12 11:15:22;;;;;;;7.67;2.33;;;20.70;99.90;;;;;;5066428;28;20167;-80
2022/04/12 11:17:48;;;;;;;6.03;1.90;;;20.80;1.00;;;;;;5067136;28;20171;-77
2022/04/12 11:20:40;;;;;;;7.20;2.57;;;20.90;99.90;;;;;;5071625;28;20169;-76
2022/04/12 11:23:12;;;;;;;6.93;2.17;;;21.00;99.90;;;;;;5067246;28;20621;-83
2022/04/12 11:25:51;;;;;;;6.67;2.00;;;20.90;9.80;;;;;;5062845;28;20188;-78
2022/04/12 11:28:25;;;;;;;8.93;2.53;;;21.00;16.30;;;;;;5063883;28;20271;-83
2022/04/12 11:30:58;;;;;;;7.10;2.10;;;21.10;1.00;;;;;;5065751;28;20185;-77
2022/04/12 11:33:27;;;;;;;6.77;2.03;;;21.10;99.90;;;;;;5045430;28;20210;-77
2022/04/12 11:35:53;;;;;;;7.83;1.93;;;21.40;1.00;;;;;;5065403;28;20202;-85
2022/04/12 11:38:20;;;;;;;3.90;1.70;;;21.70;1.00;;;;;;5063811;28;20571;-80
2022/04/12 11:40:47;;;;;;;5.47;1.80;;;21.90;1.00;;;;;;5062878;28;20185;-85
2022/04/12 11:43:31;;;;;;;4.37;1.63;;;22.10;99.90;;;;;;5062527;28;20180;-82
2022/04/12 11:45:58;;;;;;;6.77;2.20;;;22.30;99.90;;;;;;5066421;28;20204;-83
2022/04/12 11:48:31;;;;;;;6.40;2.50;;;22.20;99.90;;;;;;5067955;28;20186;-77
2022/04/12 11:51:07;;;;;;;5.40;2.00;;;22.20;99.90;;;;;;5067457;28;20195;-78
2022/04/12 11:53:33;;;;;;;4.87;2.00;;;22.20;99.90;;;;;;5066930;28;20164;-77
2022/04/12 11:56:02;;;;;;;5.00;2.20;;;22.40;93.30;;;;;;5066552;28;20217;-76
2022/04/12 11:58:31;;;;;;;7.77;2.00;;;22.20;62.10;;;;;;5070839;28;20190;-78
2022/04/12 12:00:58;;;;;;;7.90;1.90;;;22.20;10.40;;;;;;5074462;28;20182;-75
2022/04/12 12:03:25;;;;;;;4.43;1.93;;;22.00;1.00;;;;;;5074001;28;20185;-76
2022/04/12 12:05:51;;;;;;;4.67;2.17;;;21.90;2.10;;;;;;5066694;28;20220;-76
2022/04/12 12:08:23;;;;;;;5.73;2.83;;;21.80;24.70;;;;;;5064388;28;20468;-78
2022/04/12 12:10:53;;;;;;;9.00;2.03;;;21.80;86.80;;;;;;5069018;28;20186;-81
2022/04/12 12:13:23;;;;;;;4.40;2.30;;;22.10;57.50;;;;;;5065691;28;20288;-76
2022/04/12 12:15:57;;;;;;;5.30;2.13;;;22.20;25.50;;;;;;5062606;28;20165;-77
2022/04/12 12:18:22;;;;;;;5.40;2.27;;;22.30;20.20;;;;;;5065003;28;20204;-81
2022/04/12 12:20:49;;;;;;;6.30;2.20;;;22.30;1.00;;;;;;5059669;28;20179;-86
2022/04/12 12:23:15;;;;;;;3.30;1.87;;;22.10;15.10;;;;;;5063273;28;20545;-76
2022/04/12 12:25:47;;;;;;;4.93;1.90;;;22.20;58.60;;;;;;5063079;28;20172;-82
2022/04/12 12:28:18;;;;;;;4.83;2.00;;;22.30;14.80;;;;;;5067730;28;20228;-87
2022/04/12 12:30:47;;;;;;;5.73;2.10;;;22.50;1.00;;;;;;5088227;28;20206;-80
2022/04/12 12:33:13;;;;;;;6.03;2.17;;;22.70;1.00;;;;;;5086433;28;20487;-77
2022/04/12 12:35:45;;;;;;;4.90;1.93;;;22.80;1.00;;;;;;5086131;28;20167;-84
2022/04/12 12:38:17;;;;;;;7.20;1.80;;;22.80;1.00;;;;;;5096040;28;20179;-76
2022/04/12 12:40:47;;;;;;;5.50;1.87;;;23.00;1.00;;;;;;5067750;28;20264;-78
2022/04/12 12:43:14;;;;;;;8.37;2.13;;;22.80;1.00;;;;;;5087366;28;20176;-83
2022/04/12 12:45:50;;;;;;;6.97;2.03;;;22.70;1.00;;;;;;5088752;28;20166;-75
2022/04/12 12:48:22;;;;;;;5.87;2.03;;;22.50;1.00;;;;;;5097873;28;20171;-81
2022/04/12 12:51:10;;;;;;;5.77;2.00;;;22.50;1.00;;;;;;5098818;28;20193;-82
2022/04/12 12:53:40;;;;;;;6.83;1.80;;;22.60;1.00;;;;;;5095317;28;20166;-87
2022/04/12 12:56:17;;;;;;;6.60;2.37;;;23.00;1.00;;;;;;5089832;28;20161;-83
2022/04/12 12:59:27;;;;;;;8.20;2.43;;;22.90;1.00;;;;;;5087934;28;20554;-83
2022/04/12 13:01:53;;;;;;;6.77;2.07;;;22.70;1.00;;;;;;5083569;28;20179;-84
2022/04/12 13:04:33;;;;;;;6.93;2.17;;;22.70;1.00;;;;;;5085667;28;20169;-78
2022/04/12 13:07:09;;;;;;;7.17;3.50;;;22.50;1.00;;;;;;5084831;28;20228;-80